createdAt,value
2018-11-28T00:01:22.076Z,0.90
2018-11-28T00:03:53.349Z,0.88
2018-11-28T00:06:24.297Z,0.86
2018-11-28T00:08:55.177Z,0.86
2018-11-28T00:11:26.036Z,0.92
2018-11-28T00:13:57.035Z,0.94
2018-11-28T00:16:28.307Z,1.01
2018-11-28T00:18:59.368Z,1.00
2018-11-28T00:21:30.401Z,0.99
2018-11-28T00:24:01.363Z,1.02
2018-11-28T00:26:32.614Z,1.02
2018-11-28T00:29:03.604Z,1.01
2018-11-28T00:31:34.890Z,1.03
2018-11-28T00:34:06.345Z,0.94
2018-11-28T00:36:38.131Z,0.93
2018-11-28T00:39:10.837Z,0.87
2018-11-28T00:41:41.879Z,0.88
2018-11-28T00:44:13.140Z,0.84
2018-11-28T00:46:44.171Z,0.83
2018-11-28T00:49:15.489Z,0.79
2018-11-28T00:51:46.842Z,0.87
2018-11-28T00:54:18.376Z,0.87
2018-11-28T00:56:49.580Z,0.86
2018-11-28T00:59:23.008Z,0.88
2018-11-28T01:01:53.061Z,0.87
2018-11-28T01:04:24.418Z,0.81
2018-11-28T01:06:56.432Z,0.71
2018-11-28T01:09:27.674Z,0.74
2018-11-28T01:11:59.254Z,0.73
2018-11-28T01:14:30.316Z,0.69
2018-11-28T01:17:01.936Z,0.77
2018-11-28T01:19:33.027Z,0.71
2018-11-28T01:22:04.227Z,0.74
2018-11-28T01:24:35.466Z,0.72
2018-11-28T01:27:07.048Z,0.69
2018-11-28T01:29:38.236Z,0.68
2018-11-28T01:32:09.279Z,0.68
2018-11-28T01:34:40.504Z,0.73
2018-11-28T01:37:11.537Z,0.76
2018-11-28T01:39:42.823Z,0.68
2018-11-28T01:42:14.846Z,0.68
2018-11-28T01:44:46.430Z,0.70
2018-11-28T01:47:17.659Z,0.77
2018-11-28T01:49:48.940Z,0.68
2018-11-28T01:52:20.317Z,0.75
2018-11-28T01:54:51.366Z,0.79
2018-11-28T01:57:22.348Z,0.78
2018-11-28T01:59:53.749Z,0.82
2018-11-28T02:02:25.008Z,0.78
2018-11-28T02:04:56.299Z,0.76
2018-11-28T02:07:27.521Z,0.73
2018-11-28T02:09:59.442Z,0.78
2018-11-28T02:12:30.374Z,0.71
2018-11-28T02:15:01.796Z,0.68
2018-11-28T02:17:32.743Z,0.66
2018-11-28T02:20:03.959Z,0.74
2018-11-28T02:22:35.051Z,0.77
2018-11-28T02:25:06.653Z,0.79
2018-11-28T02:27:38.196Z,0.81
2018-11-28T02:30:21.777Z,0.78
2018-11-28T02:32:53.067Z,0.71
2018-11-28T02:35:24.140Z,0.78
2018-11-28T02:37:55.347Z,0.73
2018-11-28T02:40:26.374Z,0.81
2018-11-28T02:42:57.233Z,0.80
2018-11-28T02:45:28.413Z,0.79
2018-11-28T02:47:59.633Z,0.84
2018-11-28T02:50:30.883Z,0.90
2018-11-28T02:53:01.820Z,0.94
2018-11-28T02:55:32.758Z,0.99
2018-11-28T02:58:03.933Z,0.92
2018-11-28T03:00:34.997Z,0.89
2018-11-28T03:03:06.041Z,0.89
2018-11-28T03:05:36.990Z,0.90
2018-11-28T03:08:08.333Z,0.92
2018-11-28T03:10:39.299Z,0.93
2018-11-28T03:13:10.271Z,0.86
2018-11-28T03:15:44.747Z,0.93
2018-11-28T03:18:15.945Z,0.93
2018-11-28T03:20:46.994Z,0.88
2018-11-28T03:23:17.907Z,0.91
2018-11-28T03:25:48.889Z,0.90
2018-11-28T03:28:20.145Z,0.84
2018-11-28T03:30:51.185Z,0.86
2018-11-28T03:33:22.739Z,0.89
2018-11-28T03:35:53.915Z,0.89
2018-11-28T03:38:24.923Z,0.93
2018-11-28T03:40:56.543Z,0.94
2018-11-28T03:43:27.437Z,0.94
2018-11-28T03:45:58.730Z,0.92
2018-11-28T03:48:29.654Z,0.95
2018-11-28T03:51:00.837Z,0.98
2018-11-28T03:53:31.910Z,0.99
2018-11-28T03:56:02.936Z,0.99
2018-11-28T03:58:34.324Z,0.96
2018-11-28T04:01:05.436Z,0.96
2018-11-28T04:03:36.474Z,0.93
2018-11-28T04:06:08.442Z,0.95
2018-11-28T04:08:39.426Z,0.93
2018-11-28T04:11:10.586Z,0.92
2018-11-28T04:13:41.691Z,0.89
2018-11-28T04:16:12.682Z,0.90
2018-11-28T04:18:44.107Z,0.90
2018-11-28T04:21:15.576Z,0.86
2018-11-28T04:23:46.853Z,0.84
2018-11-28T04:26:17.966Z,0.73
2018-11-28T04:28:48.803Z,0.73
2018-11-28T04:31:19.649Z,0.70
2018-11-28T04:33:50.702Z,0.69
2018-11-28T04:36:21.927Z,0.63
2018-11-28T04:38:52.853Z,0.56
2018-11-28T04:41:23.789Z,0.54
2018-11-28T04:43:54.724Z,0.51
2018-11-28T04:46:25.665Z,0.47
2018-11-28T04:48:57.303Z,0.45
2018-11-28T04:51:28.205Z,0.42
2018-11-28T04:53:59.484Z,0.41
2018-11-28T04:56:30.518Z,0.42
2018-11-28T04:59:01.359Z,0.36
2018-11-28T05:01:32.320Z,0.38
2018-11-28T05:04:03.271Z,0.35
2018-11-28T05:07:27.910Z,0.39
2018-11-28T05:09:59.527Z,0.37
2018-11-28T05:12:30.557Z,0.30
2018-11-28T05:15:01.616Z,0.26
2018-11-28T05:17:32.738Z,0.21
2018-11-28T05:20:03.781Z,0.15
2018-11-28T05:22:35.096Z,0.15
2018-11-28T05:25:07.167Z,0.12
2018-11-28T05:27:38.571Z,0.13
2018-11-28T05:30:18.530Z,0.13
2018-11-28T05:32:49.634Z,0.11
2018-11-28T05:35:33.990Z,0.14
2018-11-28T05:38:15.857Z,0.17
2018-11-28T05:40:47.424Z,0.09
2018-11-28T05:43:18.471Z,0.07
2018-11-28T05:45:49.307Z,0.10
2018-11-28T05:48:20.329Z,0.09
2018-11-28T05:50:51.284Z,0.09
2018-11-28T05:53:22.270Z,0.06
2018-11-28T05:55:53.193Z,0.13
2018-11-28T05:58:24.450Z,0.14
2018-11-28T06:00:55.479Z,0.12
2018-11-28T06:03:26.659Z,0.05
2018-11-28T06:05:57.607Z,0.05
2018-11-28T06:08:28.561Z,0.07
2018-11-28T06:10:59.906Z,0.09
2018-11-28T06:13:30.919Z,0.04
2018-11-28T06:16:01.787Z,0.05
2018-11-28T06:18:33.106Z,0.04
2018-11-28T06:21:04.218Z,0.07
2018-11-28T06:23:35.065Z,0.04
2018-11-28T06:26:06.226Z,0.08
2018-11-28T06:28:37.302Z,0.06
2018-11-28T06:31:08.259Z,0.02
2018-11-28T06:33:39.624Z,0.01
2018-11-28T06:36:10.562Z,-0.05
2018-11-28T06:38:41.495Z,0.00
2018-11-28T06:41:12.783Z,0.00
2018-11-28T06:43:43.723Z,0.06
2018-11-28T06:46:14.738Z,0.06
2018-11-28T06:48:46.052Z,0.05
2018-11-28T06:51:16.959Z,0.05
2018-11-28T06:53:48.170Z,0.02
2018-11-28T06:56:19.363Z,0.03
2018-11-28T06:58:50.265Z,0.03
2018-11-28T07:01:21.814Z,0.01
2018-11-28T07:03:53.249Z,-0.01
2018-11-28T07:06:24.199Z,-0.04
2018-11-28T07:08:55.419Z,-0.03
2018-11-28T07:11:26.262Z,-0.10
2018-11-28T07:13:57.525Z,-0.03
2018-11-28T07:16:28.475Z,0.00
2018-11-28T07:19:12.950Z,-0.07
2018-11-28T07:21:43.985Z,0.02
2018-11-28T07:24:14.895Z,0.04
2018-11-28T07:26:46.116Z,-0.02
2018-11-28T07:29:17.224Z,0.02
2018-11-28T07:31:48.246Z,0.03
2018-11-28T07:34:19.563Z,0.04
2018-11-28T07:36:50.506Z,0.13
2018-11-28T07:39:21.430Z,0.13
2018-11-28T07:41:52.387Z,0.17
2018-11-28T07:44:23.231Z,0.19
2018-11-28T07:46:54.448Z,0.26
2018-11-28T07:49:25.614Z,0.26
2018-11-28T07:51:56.506Z,0.28
2018-11-28T07:54:27.636Z,0.35
2018-11-28T07:56:58.786Z,0.50
2018-11-28T07:59:30.203Z,0.44
2018-11-28T08:02:01.275Z,0.45
2018-11-28T08:04:32.681Z,0.49
2018-11-28T08:07:03.849Z,0.54
2018-11-28T08:09:35.329Z,0.53
2018-11-28T08:12:07.002Z,0.57
2018-11-28T08:14:38.010Z,0.61
2018-11-28T08:17:09.587Z,0.60
2018-11-28T08:19:40.686Z,0.66
2018-11-28T08:22:11.901Z,0.68
2018-11-28T08:24:42.948Z,0.69
2018-11-28T08:27:14.873Z,0.68
2018-11-28T08:29:46.187Z,0.76
2018-11-28T08:32:17.575Z,0.87
2018-11-28T08:34:48.838Z,0.94
2018-11-28T08:37:19.885Z,1.00
2018-11-28T08:39:51.099Z,1.03
2018-11-28T08:42:22.115Z,1.07
2018-11-28T08:44:53.329Z,1.06
2018-11-28T08:47:24.690Z,1.07
2018-11-28T08:49:55.885Z,1.08
2018-11-28T08:52:26.859Z,1.16
2018-11-28T08:54:58.370Z,1.17
2018-11-28T08:57:29.774Z,1.12
2018-11-28T09:00:00.749Z,1.17
2018-11-28T09:02:32.077Z,1.20
2018-11-28T09:05:03.545Z,1.10
2018-11-28T09:07:35.052Z,1.22
2018-11-28T09:10:08.148Z,1.23
2018-11-28T09:12:39.304Z,1.22
2018-11-28T09:15:23.999Z,1.26
2018-11-28T09:17:55.471Z,1.36
2018-11-28T09:20:26.662Z,1.44
2018-11-28T09:22:58.314Z,1.45
2018-11-28T09:25:29.441Z,1.49
2018-11-28T09:28:03.581Z,1.61
2018-11-28T09:30:35.104Z,1.73
2018-11-28T09:33:06.671Z,1.84
2018-11-28T09:35:37.743Z,1.88
2018-11-28T09:38:09.180Z,1.83
2018-11-28T09:40:40.240Z,1.89
2018-11-28T09:43:11.443Z,1.89
2018-11-28T09:45:42.688Z,1.90
2018-11-28T09:48:13.883Z,1.87
2018-11-28T09:50:44.980Z,1.86
2018-11-28T09:53:16.459Z,1.96
2018-11-28T09:55:47.748Z,2.04
2018-11-28T09:58:18.984Z,2.12
2018-11-28T10:00:50.208Z,2.23
2018-11-28T10:03:21.343Z,2.25
2018-11-28T10:05:52.452Z,2.08
2018-11-28T10:08:23.927Z,2.06
2018-11-28T10:10:55.142Z,2.14
2018-11-28T10:13:26.265Z,2.15
2018-11-28T10:15:57.621Z,2.22
2018-11-28T10:18:28.882Z,2.31
2018-11-28T10:21:00.043Z,2.25
2018-11-28T10:23:31.301Z,2.38
2018-11-28T10:26:02.278Z,2.53
2018-11-28T10:28:33.351Z,2.66
2018-11-28T10:31:04.529Z,2.59
2018-11-28T10:33:35.568Z,2.68
2018-11-28T10:36:07.097Z,2.76
2018-11-28T10:38:38.103Z,2.74
2018-11-28T10:41:09.484Z,2.57
2018-11-28T10:43:40.643Z,2.47
2018-11-28T10:46:11.804Z,2.33
2018-11-28T10:48:42.877Z,2.45
2018-11-28T10:51:14.072Z,2.54
2018-11-28T10:53:45.355Z,2.35
2018-11-28T10:56:16.615Z,2.27
2018-11-28T10:58:47.814Z,2.36
2018-11-28T11:01:26.501Z,2.32
2018-11-28T11:04:16.078Z,2.31
2018-11-28T11:07:04.274Z,2.36
2018-11-28T11:09:52.644Z,2.35
2018-11-28T11:12:40.832Z,2.35
2018-11-28T11:15:12.064Z,2.33
2018-11-28T11:17:43.269Z,2.23
2018-11-28T11:20:14.465Z,2.29
2018-11-28T11:22:45.585Z,2.28
2018-11-28T11:25:17.032Z,2.25
2018-11-28T11:27:48.201Z,2.27
2018-11-28T11:30:19.820Z,2.33
2018-11-28T11:32:51.133Z,2.49
2018-11-28T11:35:22.365Z,2.69
2018-11-28T11:37:53.783Z,2.82
2018-11-28T11:40:25.019Z,2.89
2018-11-28T11:42:56.439Z,2.97
2018-11-28T11:45:27.629Z,2.83
2018-11-28T11:47:58.767Z,2.72
2018-11-28T11:50:30.014Z,2.51
2018-11-28T11:53:01.219Z,2.33
2018-11-28T11:55:32.444Z,2.28
2018-11-28T11:58:03.561Z,2.33
2018-11-28T12:00:34.901Z,2.37
2018-11-28T12:03:13.734Z,2.42
2018-11-28T12:05:55.933Z,2.39
2018-11-28T12:08:28.739Z,2.48
2018-11-28T12:11:00.147Z,2.48
2018-11-28T12:13:31.276Z,2.36
2018-11-28T12:16:02.521Z,2.30
2018-11-28T12:18:33.748Z,2.29
2018-11-28T12:21:07.554Z,2.24
2018-11-28T12:23:39.204Z,2.25
2018-11-28T12:26:10.379Z,2.36
2018-11-28T12:28:41.936Z,2.46
2018-11-28T12:31:13.171Z,2.61
2018-11-28T12:33:44.268Z,2.50
2018-11-28T12:36:15.606Z,2.57
2018-11-28T12:38:46.585Z,2.63
2018-11-28T12:41:17.702Z,2.41
2018-11-28T12:43:49.145Z,2.18
2018-11-28T12:46:20.512Z,2.05
2018-11-28T12:48:51.768Z,2.16
2018-11-28T12:51:22.899Z,2.03
2018-11-28T12:53:54.119Z,2.02
2018-11-28T12:56:25.595Z,1.99
2018-11-28T12:58:56.682Z,2.00
2018-11-28T13:01:27.793Z,2.01
2018-11-28T13:03:58.829Z,1.92
2018-11-28T13:06:29.969Z,1.71
2018-11-28T13:09:01.199Z,1.52
2018-11-28T13:11:32.325Z,1.54
2018-11-28T13:14:03.503Z,1.61
2018-11-28T13:16:34.696Z,1.60
2018-11-28T13:19:05.889Z,1.54
2018-11-28T13:21:37.145Z,1.48
2018-11-28T13:24:08.315Z,1.47
2018-11-28T13:26:39.444Z,1.43
2018-11-28T13:29:10.536Z,1.37
2018-11-28T13:31:41.715Z,1.37
2018-11-28T13:34:12.770Z,1.30
2018-11-28T13:36:43.912Z,1.19
2018-11-28T13:39:14.982Z,1.16
2018-11-28T13:41:46.150Z,1.16
2018-11-28T13:44:17.260Z,1.17
2018-11-28T13:46:48.589Z,1.18
2018-11-28T13:49:19.839Z,1.12
2018-11-28T13:51:51.015Z,1.05
2018-11-28T13:54:22.059Z,0.95
2018-11-28T13:57:03.883Z,0.85
2018-11-28T13:59:24.725Z,0.79
2018-11-28T14:01:55.783Z,0.70
2018-11-28T14:04:26.951Z,0.64
2018-11-28T14:06:57.874Z,0.59
2018-11-28T14:09:28.804Z,0.58
2018-11-28T14:11:59.928Z,0.54
2018-11-28T14:14:31.106Z,0.52
2018-11-28T14:17:02.181Z,0.48
2018-11-28T14:19:33.105Z,0.47
2018-11-28T14:22:04.134Z,0.48
2018-11-28T14:24:35.164Z,0.48
2018-11-28T14:27:06.436Z,0.50
2018-11-28T14:29:37.552Z,0.52
2018-11-28T14:32:08.730Z,0.50
2018-11-28T14:34:39.842Z,0.40
2018-11-28T14:37:10.776Z,0.35
2018-11-28T14:39:42.387Z,0.34
2018-11-28T14:42:13.501Z,0.34
2018-11-28T14:44:44.768Z,0.29
2018-11-28T14:47:15.662Z,0.25
2018-11-28T14:49:46.699Z,0.28
2018-11-28T14:52:17.560Z,0.26
2018-11-28T14:54:48.471Z,0.20
2018-11-28T14:57:19.438Z,0.23
2018-11-28T14:59:50.576Z,0.24
2018-11-28T15:02:21.717Z,0.24
2018-11-28T15:04:52.751Z,0.16
2018-11-28T15:07:25.217Z,0.10
2018-11-28T15:10:02.124Z,0.06
2018-11-28T15:12:33.684Z,0.07
2018-11-28T15:15:05.090Z,0.02
2018-11-28T15:17:36.291Z,-0.01
2018-11-28T15:20:09.389Z,0.02
2018-11-28T15:22:40.435Z,-0.01
2018-11-28T15:25:12.607Z,0.01
2018-11-28T15:27:43.543Z,0.07
2018-11-28T15:30:14.658Z,0.01
2018-11-28T15:32:45.611Z,0.00
2018-11-28T15:35:17.134Z,0.06
2018-11-28T15:37:47.992Z,-0.05
2018-11-28T15:40:18.945Z,-0.08
2018-11-28T15:42:50.151Z,-0.08
2018-11-28T15:45:21.186Z,-0.10
2018-11-28T15:47:52.746Z,-0.18
2018-11-28T15:50:23.772Z,-0.18
2018-11-28T15:52:55.075Z,-0.25
2018-11-28T15:55:26.184Z,-0.32
2018-11-28T15:57:57.657Z,-0.29
2018-11-28T16:00:28.699Z,-0.32
2018-11-28T16:02:59.989Z,-0.33
2018-11-28T16:05:31.028Z,-0.33
2018-11-28T16:08:02.318Z,-0.39
2018-11-28T16:10:38.497Z,-0.42
2018-11-28T16:13:09.752Z,-0.37
2018-11-28T16:15:57.445Z,-0.40
2018-11-28T16:18:28.518Z,-0.42
2018-11-28T16:20:59.817Z,-0.49
2018-11-28T16:23:30.975Z,-0.47
2018-11-28T16:26:02.276Z,-0.51
2018-11-28T16:28:33.395Z,-0.48
2018-11-28T16:31:04.563Z,-0.44
2018-11-28T16:33:35.619Z,-0.38
2018-11-28T16:36:06.732Z,-0.34
2018-11-28T16:38:37.703Z,-0.34
2018-11-28T16:41:08.660Z,-0.31
2018-11-28T16:43:39.874Z,-0.26
2018-11-28T16:46:11.496Z,-0.26
2018-11-28T16:48:43.031Z,-0.27
2018-11-28T16:51:14.334Z,-0.21
2018-11-28T16:53:45.540Z,-0.20
2018-11-28T16:56:16.390Z,-0.20
2018-11-28T16:58:47.441Z,-0.21
2018-11-28T17:01:18.465Z,-0.23
2018-11-28T17:03:49.316Z,-0.29
2018-11-28T17:06:20.496Z,-0.33
2018-11-28T17:08:51.450Z,-0.38
2018-11-28T17:11:22.659Z,-0.41
2018-11-28T17:13:53.961Z,-0.42
2018-11-28T17:16:24.950Z,-0.40
2018-11-28T17:18:55.779Z,-0.36
2018-11-28T17:21:26.634Z,-0.33
2018-11-28T17:23:58.012Z,-0.37
2018-11-28T17:26:29.277Z,-0.37
2018-11-28T17:29:00.515Z,-0.33
2018-11-28T17:31:31.392Z,-0.33
2018-11-28T17:34:02.760Z,-0.34
2018-11-28T17:36:33.810Z,-0.38
2018-11-28T17:39:09.073Z,-0.36
2018-11-28T17:41:40.932Z,-0.38
2018-11-28T17:44:11.964Z,-0.34
2018-11-28T17:46:43.128Z,-0.37
2018-11-28T17:49:14.450Z,-0.36
2018-11-28T17:51:45.927Z,-0.32
2018-11-28T17:54:16.889Z,-0.35
2018-11-28T17:56:48.113Z,-0.33
2018-11-28T17:59:19.124Z,-0.31
2018-11-28T18:01:50.418Z,-0.36
2018-11-28T18:04:21.273Z,-0.35
2018-11-28T18:06:52.652Z,-0.41
2018-11-28T18:09:23.859Z,-0.42
2018-11-28T18:11:55.075Z,-0.43
2018-11-28T18:14:26.506Z,-0.43
2018-11-28T18:16:57.460Z,-0.39
2018-11-28T18:19:28.842Z,-0.39
2018-11-28T18:21:59.881Z,-0.41
2018-11-28T18:24:31.420Z,-0.34
2018-11-28T18:27:02.622Z,-0.32
2018-11-28T18:29:33.649Z,-0.36
2018-11-28T18:32:04.736Z,-0.36
2018-11-28T18:34:35.658Z,-0.40
2018-11-28T18:37:07.346Z,-0.43
2018-11-28T18:39:38.470Z,-0.44
2018-11-28T18:42:09.729Z,-0.49
2018-11-28T18:44:40.704Z,-0.52
2018-11-28T18:47:11.798Z,-0.47
2018-11-28T18:49:42.896Z,-0.44
2018-11-28T18:52:14.035Z,-0.45
2018-11-28T18:54:45.238Z,-0.39
2018-11-28T18:57:16.569Z,-0.41
2018-11-28T18:59:48.092Z,-0.40
2018-11-28T19:02:19.165Z,-0.38
2018-11-28T19:04:50.680Z,-0.36
2018-11-28T19:07:21.822Z,-0.33
2018-11-28T19:09:53.444Z,-0.35
2018-11-28T19:12:24.569Z,-0.34
2018-11-28T19:14:55.622Z,-0.35
2018-11-28T19:17:26.665Z,-0.34
2018-11-28T19:19:57.707Z,-0.35
2018-11-28T19:22:28.868Z,-0.32
2018-11-28T19:25:00.012Z,-0.31
2018-11-28T19:27:31.090Z,-0.31
2018-11-28T19:30:02.083Z,-0.29
2018-11-28T19:32:33.401Z,-0.31
2018-11-28T19:35:04.600Z,-0.32
2018-11-28T19:37:35.924Z,-0.35
2018-11-28T19:40:17.083Z,-0.39
2018-11-28T19:42:48.729Z,-0.41
2018-11-28T19:45:20.017Z,-0.37
2018-11-28T19:47:51.564Z,-0.39
2018-11-28T19:50:31.010Z,-0.37
2018-11-28T19:53:02.081Z,-0.42
2018-11-28T19:55:33.155Z,-0.41
2018-11-28T19:58:04.458Z,-0.39
2018-11-28T20:00:35.619Z,-0.38
2018-11-28T20:03:07.008Z,-0.40
2018-11-28T20:05:38.463Z,-0.42
2018-11-28T20:08:10.285Z,-0.43
2018-11-28T20:10:41.593Z,-0.37
2018-11-28T20:13:13.441Z,-0.36
2018-11-28T20:15:48.004Z,-0.38
2018-11-28T20:18:19.235Z,-0.33
2018-11-28T20:20:50.966Z,-0.34
2018-11-28T20:23:22.165Z,-0.30
2018-11-28T20:25:53.392Z,-0.31
2018-11-28T20:28:24.899Z,-0.31
2018-11-28T20:30:56.041Z,-0.33
2018-11-28T20:33:27.203Z,-0.35
2018-11-28T20:35:58.563Z,-0.33
2018-11-28T20:38:35.124Z,-0.30
2018-11-28T20:41:06.625Z,-0.28
2018-11-28T20:43:37.952Z,-0.30
2018-11-28T20:46:09.851Z,-0.31
2018-11-28T20:48:41.330Z,-0.32
2018-11-28T20:51:12.560Z,-0.29
2018-11-28T20:53:43.722Z,-0.31
2018-11-28T20:56:15.288Z,-0.25
2018-11-28T20:58:46.892Z,-0.26
2018-11-28T21:01:18.245Z,-0.29
2018-11-28T21:03:49.671Z,-0.26
2018-11-28T21:06:21.378Z,-0.30
2018-11-28T21:08:52.928Z,-0.26
2018-11-28T21:11:23.955Z,-0.26
2018-11-28T21:13:55.286Z,-0.29
2018-11-28T21:16:26.583Z,-0.30
2018-11-28T21:18:58.369Z,-0.30
2018-11-28T21:21:30.134Z,-0.32
2018-11-28T21:24:01.572Z,-0.35
2018-11-28T21:26:32.782Z,-0.35
2018-11-28T21:29:04.133Z,-0.38
2018-11-28T21:31:36.387Z,-0.39
2018-11-28T21:34:08.278Z,-0.40
2018-11-28T21:36:40.148Z,-0.35
2018-11-28T21:39:12.213Z,-0.42
2018-11-28T21:41:43.585Z,-0.40
2018-11-28T21:44:15.519Z,-0.39
2018-11-28T21:46:46.883Z,-0.42
2018-11-28T21:49:17.965Z,-0.44
2018-11-28T21:51:49.389Z,-0.46
2018-11-28T21:54:20.563Z,-0.43
2018-11-28T21:56:51.761Z,-0.44
2018-11-28T21:59:23.337Z,-0.46
2018-11-28T22:01:54.917Z,-0.50
2018-11-28T22:04:26.134Z,-0.49
2018-11-28T22:06:57.263Z,-0.49
2018-11-28T22:09:33.564Z,-0.52
2018-11-28T22:12:04.798Z,-0.43
2018-11-28T22:14:36.228Z,-0.42
2018-11-28T22:17:07.578Z,-0.47
2018-11-28T22:19:39.088Z,-0.48
2018-11-28T22:22:11.352Z,-0.52
2018-11-28T22:24:42.570Z,-0.50
2018-11-28T22:27:13.796Z,-0.50
2018-11-28T22:29:45.319Z,-0.47
2018-11-28T22:32:16.775Z,-0.49
2018-11-28T22:34:48.335Z,-0.51
2018-11-28T22:37:19.513Z,-0.55
2018-11-28T22:39:50.682Z,-0.56
2018-11-28T22:42:21.731Z,-0.53
2018-11-28T22:44:53.169Z,-0.48
2018-11-28T22:47:25.280Z,-0.48
2018-11-28T22:49:56.573Z,-0.50
2018-11-28T22:52:27.890Z,-0.53
2018-11-28T22:54:59.270Z,-0.55
2018-11-28T22:57:30.509Z,-0.51
2018-11-28T23:00:01.641Z,-0.58
2018-11-28T23:02:59.216Z,-0.56
2018-11-28T23:05:53.037Z,-0.53
2018-11-28T23:08:25.026Z,-0.57
2018-11-28T23:10:56.503Z,-0.55
2018-11-28T23:13:28.432Z,-0.54
2018-11-28T23:15:59.699Z,-0.55
2018-11-28T23:18:31.214Z,-0.59
2018-11-28T23:21:02.474Z,-0.61
2018-11-28T23:23:33.593Z,-0.63
2018-11-28T23:26:04.824Z,-0.63
2018-11-28T23:28:36.003Z,-0.58
2018-11-28T23:31:07.422Z,-0.65
2018-11-28T23:33:38.667Z,-0.64
2018-11-28T23:36:09.899Z,-0.65
2018-11-28T23:38:41.270Z,-0.62
2018-11-28T23:41:13.005Z,-0.61
2018-11-28T23:43:44.139Z,-0.63
2018-11-28T23:46:16.627Z,-0.68
2018-11-28T23:48:48.978Z,-0.68
2018-11-28T23:51:21.751Z,-0.67
2018-11-28T23:53:53.177Z,-0.62
2018-11-28T23:56:24.701Z,-0.67
2018-11-28T23:58:55.893Z,-0.62
